createdAt,value
2018-08-12T00:00:11.146Z,21.37
2018-08-12T00:02:39.827Z,21.33
2018-08-12T00:05:08.526Z,21.30
2018-08-12T00:07:37.235Z,21.35
2018-08-12T00:10:08.131Z,21.39
2018-08-12T00:12:36.928Z,21.29
2018-08-12T00:15:06.568Z,21.28
2018-08-12T00:17:35.228Z,21.28
2018-08-12T00:20:03.974Z,21.21
2018-08-12T00:22:32.701Z,21.10
2018-08-12T00:25:01.420Z,21.17
2018-08-12T00:27:30.130Z,21.01
2018-08-12T00:29:58.860Z,20.97
2018-08-12T00:32:27.610Z,20.76
2018-08-12T00:34:56.356Z,20.47
2018-08-12T00:37:25.699Z,20.22
2018-08-12T00:39:54.404Z,20.03
2018-08-12T00:42:23.137Z,20.00
2018-08-12T00:44:51.837Z,19.85
2018-08-12T00:47:20.541Z,19.75
2018-08-12T00:49:49.266Z,19.70
2018-08-12T00:52:17.933Z,19.63
2018-08-12T00:54:46.701Z,19.60
2018-08-12T00:57:15.493Z,19.46
2018-08-12T00:59:44.193Z,19.46
2018-08-12T01:02:12.870Z,19.47
2018-08-12T01:04:41.559Z,19.41
2018-08-12T01:07:11.061Z,19.41
2018-08-12T01:09:39.799Z,19.37
2018-08-12T01:12:08.553Z,19.35
2018-08-12T01:14:37.248Z,19.41
2018-08-12T01:17:06.039Z,19.43
2018-08-12T01:19:34.736Z,19.43
2018-08-12T01:22:03.700Z,19.47
2018-08-12T01:24:32.440Z,19.63
2018-08-12T01:27:01.168Z,19.72
2018-08-12T01:29:29.892Z,19.83
2018-08-12T01:31:58.644Z,19.88
2018-08-12T01:34:27.338Z,19.87
2018-08-12T01:36:56.015Z,19.92
2018-08-12T01:39:24.654Z,19.88
2018-08-12T01:41:53.426Z,19.98
2018-08-12T01:44:22.174Z,20.04
2018-08-12T01:46:50.894Z,20.17
2018-08-12T01:49:19.914Z,20.24
2018-08-12T01:51:48.678Z,20.21
2018-08-12T01:54:17.347Z,20.20
2018-08-12T01:56:46.061Z,20.12
2018-08-12T01:59:14.735Z,20.09
2018-08-12T02:01:43.398Z,20.11
2018-08-12T02:04:12.138Z,20.12
2018-08-12T02:06:40.795Z,20.19
2018-08-12T02:09:10.558Z,20.15
2018-08-12T02:11:39.406Z,20.10
2018-08-12T02:14:08.555Z,20.10
2018-08-12T02:16:37.864Z,20.11
2018-08-12T02:19:06.857Z,20.05
2018-08-12T02:21:35.534Z,20.02
2018-08-12T02:24:04.257Z,20.02
2018-08-12T02:26:32.930Z,19.91
2018-08-12T02:29:01.585Z,19.89
2018-08-12T02:31:30.303Z,19.84
2018-08-12T02:33:59.157Z,19.88
2018-08-12T02:36:27.874Z,19.75
2018-08-12T02:38:56.624Z,19.77
2018-08-12T02:41:25.379Z,19.75
2018-08-12T02:43:54.050Z,19.71
2018-08-12T02:46:22.858Z,19.71
2018-08-12T02:48:52.299Z,19.63
2018-08-12T02:51:20.981Z,19.65
2018-08-12T02:53:49.709Z,19.59
2018-08-12T02:56:18.440Z,19.59
2018-08-12T02:58:47.127Z,19.49
2018-08-12T03:01:18.798Z,19.41
2018-08-12T03:03:47.494Z,19.45
2018-08-12T03:06:16.157Z,19.44
2018-08-12T03:08:44.816Z,19.22
2018-08-12T03:11:13.645Z,19.08
2018-08-12T03:13:42.416Z,19.11
2018-08-12T03:16:11.217Z,19.05
2018-08-12T03:18:39.894Z,19.07
2018-08-12T03:21:08.578Z,19.01
2018-08-12T03:23:37.318Z,19.00
2018-08-12T03:26:06.040Z,18.94
2018-08-12T03:28:34.750Z,19.01
2018-08-12T03:31:03.630Z,18.77
2018-08-12T03:33:32.274Z,18.60
2018-08-12T03:36:00.965Z,18.45
2018-08-12T03:38:29.602Z,18.35
2018-08-12T03:40:58.255Z,18.32
2018-08-12T03:43:26.908Z,18.25
2018-08-12T03:45:55.535Z,18.21
2018-08-12T03:48:24.126Z,18.18
2018-08-12T03:50:52.749Z,18.15
2018-08-12T03:53:21.454Z,18.12
2018-08-12T03:55:50.199Z,18.09
2018-08-12T03:58:18.811Z,18.06
2018-08-12T04:00:47.447Z,18.09
2018-08-12T04:03:16.076Z,18.20
2018-08-12T04:05:44.749Z,18.23
2018-08-12T04:08:13.398Z,18.42
2018-08-12T04:10:42.074Z,18.75
2018-08-12T04:13:10.742Z,18.91
2018-08-12T04:15:39.363Z,18.89
2018-08-12T04:18:08.045Z,18.98
2018-08-12T04:20:36.710Z,19.09
2018-08-12T04:23:05.346Z,19.35
2018-08-12T04:25:40.349Z,19.38
2018-08-12T04:28:08.998Z,19.43
2018-08-12T04:30:37.659Z,19.39
2018-08-12T04:33:06.320Z,19.46
2018-08-12T04:35:34.942Z,19.58
2018-08-12T04:38:03.568Z,19.63
2018-08-12T04:40:32.253Z,19.67
2018-08-12T04:43:00.873Z,19.76
2018-08-12T04:45:29.496Z,19.95
2018-08-12T04:47:58.141Z,19.95
2018-08-12T04:50:26.874Z,19.88
2018-08-12T04:52:55.467Z,19.92
2018-08-12T04:55:24.104Z,19.99
2018-08-12T04:57:52.750Z,19.96
2018-08-12T05:00:21.385Z,19.94
2018-08-12T05:02:50.022Z,19.97
2018-08-12T05:05:18.650Z,20.34
2018-08-12T05:07:47.236Z,20.30
2018-08-12T05:10:15.872Z,20.37
2018-08-12T05:12:44.459Z,20.42
2018-08-12T05:15:13.145Z,20.43
2018-08-12T05:17:41.780Z,20.39
2018-08-12T05:20:11.522Z,20.37
2018-08-12T05:22:40.606Z,20.37
2018-08-12T05:25:09.332Z,20.39
2018-08-12T05:27:38.017Z,20.40
2018-08-12T05:30:08.567Z,20.46
2018-08-12T05:32:37.254Z,20.49
2018-08-12T05:35:09.139Z,20.51
2018-08-12T05:37:37.912Z,20.47
2018-08-12T05:40:08.482Z,20.51
2018-08-12T05:42:37.309Z,20.60
2018-08-12T05:45:07.606Z,20.60
2018-08-12T05:47:36.353Z,20.62
2018-08-12T05:50:05.844Z,20.70
2018-08-12T05:52:34.545Z,20.76
2018-08-12T05:55:03.300Z,20.78
2018-08-12T05:57:31.983Z,20.87
2018-08-12T06:00:00.623Z,21.00
2018-08-12T06:02:29.259Z,21.03
2018-08-12T06:04:58.022Z,21.16
2018-08-12T06:07:26.733Z,21.23
2018-08-12T06:09:55.443Z,21.32
2018-08-12T06:12:24.247Z,21.36
2018-08-12T06:14:53.002Z,21.48
2018-08-12T06:17:21.759Z,21.53
2018-08-12T06:19:50.486Z,21.66
2018-08-12T06:22:20.175Z,21.83
2018-08-12T06:24:48.984Z,21.95
2018-08-12T06:27:17.889Z,21.99
2018-08-12T06:29:46.876Z,22.09
2018-08-12T06:32:15.669Z,22.21
2018-08-12T06:34:44.530Z,22.30
2018-08-12T06:37:13.691Z,22.31
2018-08-12T06:39:42.462Z,22.36
2018-08-12T06:42:11.166Z,22.46
2018-08-12T06:44:39.857Z,22.59
2018-08-12T06:47:08.553Z,22.64
2018-08-12T06:49:37.322Z,22.70
2018-08-12T06:52:06.064Z,22.80
2018-08-12T06:54:34.669Z,22.83
2018-08-12T06:57:03.352Z,22.95
2018-08-12T06:59:32.101Z,23.00
2018-08-12T07:02:00.781Z,23.10
2018-08-12T07:04:30.399Z,23.17
2018-08-12T07:06:59.193Z,23.22
2018-08-12T07:09:27.842Z,23.27
2018-08-12T07:11:56.542Z,23.42
2018-08-12T07:14:25.265Z,23.55
2018-08-12T07:16:53.945Z,23.60
2018-08-12T07:19:22.655Z,23.62
2018-08-12T07:21:51.335Z,23.69
2018-08-12T07:24:20.044Z,23.73
2018-08-12T07:26:48.709Z,23.79
2018-08-12T07:29:17.436Z,23.97
2018-08-12T07:31:46.141Z,23.92
2018-08-12T07:34:15.095Z,23.93
2018-08-12T07:36:44.025Z,24.02
2018-08-12T07:39:12.674Z,24.06
2018-08-12T07:41:41.514Z,24.13
2018-08-12T07:44:10.192Z,24.27
2018-08-12T07:46:38.894Z,24.14
2018-08-12T07:49:07.605Z,24.20
2018-08-12T07:51:36.238Z,24.27
2018-08-12T07:54:05.066Z,24.37
2018-08-12T07:56:33.921Z,24.57
2018-08-12T07:59:02.730Z,24.59
2018-08-12T08:01:31.603Z,24.57
2018-08-12T08:04:02.324Z,24.61
2018-08-12T08:06:33.120Z,24.67
2018-08-12T08:09:01.926Z,24.74
2018-08-12T08:11:30.627Z,24.80
2018-08-12T08:13:59.303Z,24.92
2018-08-12T08:16:28.329Z,25.14
2018-08-12T08:18:57.084Z,25.22
2018-08-12T08:21:25.852Z,25.22
2018-08-12T08:23:54.549Z,25.39
2018-08-12T08:26:23.224Z,25.56
2018-08-12T08:28:53.457Z,25.82
2018-08-12T08:31:22.267Z,26.13
2018-08-12T08:33:50.916Z,26.17
2018-08-12T08:36:19.625Z,26.15
2018-08-12T08:38:48.350Z,26.24
2018-08-12T08:41:17.037Z,26.10
2018-08-12T08:43:45.694Z,26.09
2018-08-12T08:46:14.473Z,26.21
2018-08-12T08:48:43.156Z,26.17
2018-08-12T08:51:11.858Z,26.19
2018-08-12T08:53:40.510Z,26.35
2018-08-12T08:56:09.242Z,26.42
2018-08-12T08:58:37.910Z,26.55
2018-08-12T09:01:12.083Z,26.62
2018-08-12T09:03:40.779Z,26.62
2018-08-12T09:06:09.451Z,26.65
2018-08-12T09:08:38.275Z,26.60
2018-08-12T09:11:06.963Z,26.63
2018-08-12T09:13:35.702Z,26.62
2018-08-12T09:16:04.511Z,26.66
2018-08-12T09:18:33.169Z,26.70
2018-08-12T09:21:01.829Z,26.74
2018-08-12T09:23:30.547Z,26.70
2018-08-12T09:25:59.168Z,26.77
2018-08-12T09:28:28.126Z,26.74
2018-08-12T09:30:56.821Z,26.78
2018-08-12T09:33:25.500Z,26.81
2018-08-12T09:35:54.396Z,26.89
2018-08-12T09:38:23.101Z,26.86
2018-08-12T09:40:51.858Z,27.02
2018-08-12T09:43:20.514Z,26.99
2018-08-12T09:45:49.188Z,27.01
2018-08-12T09:48:17.925Z,27.04
2018-08-12T09:50:46.554Z,27.05
2018-08-12T09:53:15.625Z,27.11
2018-08-12T09:55:44.273Z,27.11
2018-08-12T09:58:12.994Z,27.11
2018-08-12T10:00:42.000Z,27.11
2018-08-12T10:03:11.351Z,27.33
2018-08-12T10:05:40.091Z,27.30
2018-08-12T10:08:08.877Z,27.21
2018-08-12T10:10:37.585Z,27.33
2018-08-12T10:13:06.444Z,27.42
2018-08-12T10:15:35.201Z,27.45
2018-08-12T10:18:04.756Z,27.44
2018-08-12T10:20:33.646Z,27.52
2018-08-12T10:23:02.418Z,27.27
2018-08-12T10:25:31.116Z,27.47
2018-08-12T10:27:59.794Z,27.60
2018-08-12T10:30:28.563Z,27.60
2018-08-12T10:32:57.271Z,27.64
2018-08-12T10:35:25.975Z,27.74
2018-08-12T10:37:54.615Z,27.84
2018-08-12T10:40:23.333Z,28.03
2018-08-12T10:42:52.049Z,28.04
2018-08-12T10:45:20.737Z,28.16
2018-08-12T10:47:49.496Z,28.24
2018-08-12T10:50:19.419Z,28.16
2018-08-12T10:52:48.731Z,28.24
2018-08-12T10:55:20.058Z,28.23
2018-08-12T10:57:48.829Z,28.23
2018-08-12T11:00:20.500Z,28.20
2018-08-12T11:02:49.297Z,28.26
2018-08-12T11:05:18.202Z,28.51
2018-08-12T11:07:49.674Z,28.65
2018-08-12T11:10:18.497Z,28.68
2018-08-12T11:12:47.276Z,28.79
2018-08-12T11:15:15.959Z,28.73
2018-08-12T11:17:44.657Z,28.79
2018-08-12T11:20:13.393Z,28.97
2018-08-12T11:22:42.252Z,29.21
2018-08-12T11:25:12.069Z,29.33
2018-08-12T11:27:43.677Z,29.54
2018-08-12T11:30:15.078Z,29.62
2018-08-12T11:32:43.791Z,29.75
2018-08-12T11:35:14.285Z,29.80
2018-08-12T11:37:43.722Z,29.91
2018-08-12T11:40:13.458Z,30.08
2018-08-12T11:42:42.243Z,30.16
2018-08-12T11:45:15.570Z,30.15
2018-08-12T11:47:44.806Z,30.11
2018-08-12T11:50:14.092Z,30.11
2018-08-12T11:52:43.963Z,30.25
2018-08-12T11:55:13.839Z,30.41
2018-08-12T11:57:42.553Z,30.63
2018-08-12T12:00:15.897Z,30.76
2018-08-12T12:02:45.520Z,31.16
2018-08-12T12:05:14.396Z,31.24
2018-08-12T12:07:43.590Z,31.35
2018-08-12T12:10:14.554Z,31.43
2018-08-12T12:12:44.342Z,31.33
2018-08-12T12:15:13.870Z,31.28
2018-08-12T12:17:42.976Z,31.21
2018-08-12T12:20:12.494Z,31.47
2018-08-12T12:22:42.067Z,31.59
2018-08-12T12:25:12.069Z,31.81
2018-08-12T12:27:40.759Z,31.90
2018-08-12T12:30:12.114Z,32.12
2018-08-12T12:32:40.799Z,32.22
2018-08-12T12:35:09.510Z,32.36
2018-08-12T12:37:38.517Z,32.32
2018-08-12T12:40:08.479Z,32.43
2018-08-12T12:42:37.215Z,32.69
2018-08-12T12:45:07.739Z,32.97
2018-08-12T12:47:37.340Z,33.14
2018-08-12T12:50:08.912Z,33.24
2018-08-12T12:52:37.970Z,33.27
2018-08-12T12:55:06.914Z,33.36
2018-08-12T12:57:35.598Z,33.54
2018-08-12T13:00:05.655Z,33.82
2018-08-12T13:02:34.586Z,34.01
2018-08-12T13:05:03.274Z,34.15
2018-08-12T13:07:31.966Z,34.27
2018-08-12T13:10:00.598Z,34.55
2018-08-12T13:12:29.284Z,34.70
2018-08-12T13:14:57.945Z,35.09
2018-08-12T13:17:26.577Z,34.83
2018-08-12T13:19:55.298Z,35.25
2018-08-12T13:22:23.980Z,35.41
2018-08-12T13:24:52.608Z,35.54
2018-08-12T13:27:21.266Z,35.51
2018-08-12T13:29:49.904Z,35.32
2018-08-12T13:32:18.514Z,35.40
2018-08-12T13:34:47.225Z,35.63
2018-08-12T13:37:15.869Z,35.76
2018-08-12T13:39:44.556Z,35.82
2018-08-12T13:42:13.308Z,35.45
2018-08-12T13:44:41.971Z,35.67
2018-08-12T13:47:10.603Z,35.96
2018-08-12T13:49:39.230Z,36.13
2018-08-12T13:52:07.914Z,35.67
2018-08-12T13:54:36.525Z,35.70
2018-08-12T13:57:05.222Z,35.82
2018-08-12T13:59:33.843Z,35.86
2018-08-12T14:02:02.471Z,35.81
2018-08-12T14:04:32.175Z,36.09
2018-08-12T14:07:00.834Z,36.16
2018-08-12T14:09:29.448Z,36.38
2018-08-12T14:11:58.137Z,36.52
2018-08-12T14:14:26.841Z,37.11
2018-08-12T14:16:55.593Z,37.49
2018-08-12T14:19:24.266Z,38.38
2018-08-12T14:21:52.953Z,39.28
2018-08-12T14:24:21.632Z,39.93
2018-08-12T14:26:56.910Z,40.38
2018-08-12T14:29:25.549Z,40.87
2018-08-12T14:31:54.260Z,41.14
2018-08-12T14:34:22.894Z,41.46
2018-08-12T14:36:51.541Z,41.50
2018-08-12T14:39:20.174Z,41.83
2018-08-12T14:41:48.865Z,42.16
2018-08-12T14:44:17.516Z,42.09
2018-08-12T14:46:46.143Z,42.94
2018-08-12T14:49:14.791Z,43.70
2018-08-12T14:51:43.551Z,43.74
2018-08-12T14:54:12.203Z,43.52
2018-08-12T14:56:40.816Z,43.47
2018-08-12T14:59:09.566Z,43.93
2018-08-12T15:01:38.158Z,44.11
2018-08-12T15:04:06.817Z,44.06
2018-08-12T15:06:35.665Z,44.19
2018-08-12T15:09:06.317Z,43.99
2018-08-12T15:11:35.109Z,43.61
2018-08-12T15:14:03.922Z,43.00
2018-08-12T15:16:32.523Z,42.06
2018-08-12T15:19:01.415Z,42.27
2018-08-12T15:21:29.999Z,42.23
2018-08-12T15:23:58.758Z,42.09
2018-08-12T15:26:27.430Z,41.40
2018-08-12T15:28:56.100Z,41.08
2018-08-12T15:31:24.765Z,40.88
2018-08-12T15:33:53.440Z,41.13
2018-08-12T15:36:22.178Z,41.30
2018-08-12T15:38:50.746Z,41.37
2018-08-12T15:41:19.360Z,41.38
2018-08-12T15:43:48.070Z,42.33
2018-08-12T15:46:16.762Z,42.53
2018-08-12T15:48:45.400Z,42.54
2018-08-12T15:51:14.138Z,42.40
2018-08-12T15:53:42.677Z,41.99
2018-08-12T15:56:11.361Z,42.14
2018-08-12T15:58:39.957Z,42.18
2018-08-12T16:01:08.638Z,42.59
2018-08-12T16:03:37.358Z,43.40
2018-08-12T16:06:06.021Z,44.15
2018-08-12T16:08:34.682Z,44.95
2018-08-12T16:11:03.339Z,44.76
2018-08-12T16:13:31.977Z,45.28
2018-08-12T16:16:00.713Z,44.95
2018-08-12T16:18:29.449Z,45.36
2018-08-12T16:20:58.045Z,45.60
2018-08-12T16:23:26.748Z,45.14
2018-08-12T16:25:55.386Z,45.01
2018-08-12T16:28:24.382Z,44.41
2018-08-12T16:30:53.022Z,44.66
2018-08-12T16:33:21.744Z,44.83
2018-08-12T16:35:50.391Z,44.32
2018-08-12T16:38:19.097Z,44.37
2018-08-12T16:40:47.819Z,44.01
2018-08-12T16:43:16.433Z,43.62
2018-08-12T16:45:45.086Z,43.90
2018-08-12T16:48:13.763Z,44.20
2018-08-12T16:50:42.427Z,43.81
2018-08-12T16:53:11.090Z,43.71
2018-08-12T16:55:39.747Z,43.65
2018-08-12T16:58:08.455Z,43.40
2018-08-12T17:00:37.158Z,43.80
2018-08-12T17:03:05.981Z,43.17
2018-08-12T17:05:34.626Z,42.86
2018-08-12T17:08:03.283Z,42.13
2018-08-12T17:10:31.964Z,41.87
2018-08-12T17:13:00.625Z,41.77
2018-08-12T17:15:29.226Z,41.25
2018-08-12T17:17:57.998Z,40.29
2018-08-12T17:20:26.629Z,38.83
2018-08-12T17:22:55.266Z,37.61
2018-08-12T17:25:24.004Z,37.37
2018-08-12T17:27:52.677Z,37.13
2018-08-12T17:30:21.345Z,36.87
2018-08-12T17:32:49.926Z,36.88
2018-08-12T17:35:18.579Z,37.05
2018-08-12T17:37:47.336Z,36.15
2018-08-12T17:40:16.476Z,35.62
2018-08-12T17:42:45.172Z,34.64
2018-08-12T17:45:14.334Z,33.45
2018-08-12T17:47:43.249Z,32.35
2018-08-12T17:50:13.264Z,31.62
2018-08-12T17:52:42.244Z,30.76
2018-08-12T17:55:11.303Z,30.40
2018-08-12T17:57:40.119Z,29.89
2018-08-12T18:00:11.688Z,29.53
2018-08-12T18:02:40.709Z,29.34
2018-08-12T18:05:09.958Z,29.05
2018-08-12T18:07:39.474Z,28.79
2018-08-12T18:10:11.005Z,28.53
2018-08-12T18:12:39.946Z,28.31
2018-08-12T18:15:10.601Z,28.07
2018-08-12T18:17:40.154Z,27.79
2018-08-12T18:20:09.404Z,27.60
2018-08-12T18:22:38.360Z,27.45
2018-08-12T18:25:09.266Z,27.25
2018-08-12T18:27:38.148Z,27.03
2018-08-12T18:30:10.625Z,26.91
2018-08-12T18:32:39.376Z,26.70
2018-08-12T18:35:13.289Z,26.56
2018-08-12T18:37:42.515Z,26.50
2018-08-12T18:40:12.217Z,26.34
2018-08-12T18:42:41.133Z,26.25
2018-08-12T18:45:09.950Z,26.23
2018-08-12T18:47:38.839Z,26.04
2018-08-12T18:50:08.964Z,25.91
2018-08-12T18:52:37.818Z,25.90
2018-08-12T18:55:08.013Z,25.86
2018-08-12T18:57:36.825Z,25.76
2018-08-12T19:00:06.768Z,25.63
2018-08-12T19:02:35.623Z,25.48
2018-08-12T19:05:05.041Z,25.44
2018-08-12T19:07:38.800Z,25.31
2018-08-12T19:10:08.763Z,25.24
2018-08-12T19:12:37.659Z,25.18
2018-08-12T19:15:08.301Z,25.14
2018-08-12T19:17:37.447Z,25.06
2018-08-12T19:20:07.289Z,24.93
2018-08-12T19:22:36.358Z,24.85
2018-08-12T19:25:05.916Z,24.79
2018-08-12T19:27:35.057Z,24.61
2018-08-12T19:30:03.971Z,24.65
2018-08-12T19:32:33.097Z,24.54
2018-08-12T19:35:02.650Z,24.37
2018-08-12T19:37:31.333Z,24.34
2018-08-12T19:40:00.108Z,24.34
2018-08-12T19:42:29.024Z,24.28
2018-08-12T19:44:57.895Z,24.25
2018-08-12T19:47:26.693Z,24.20
2018-08-12T19:49:55.355Z,24.11
2018-08-12T19:52:24.089Z,24.15
2018-08-12T19:54:52.889Z,24.05
2018-08-12T19:57:21.784Z,23.98
2018-08-12T19:59:50.442Z,23.97
2018-08-12T20:02:19.196Z,23.92
2018-08-12T20:04:48.237Z,23.88
2018-08-12T20:07:16.892Z,23.81
2018-08-12T20:09:45.583Z,23.82
2018-08-12T20:12:14.427Z,23.75
2018-08-12T20:14:42.961Z,23.60
2018-08-12T20:17:11.622Z,23.54
2018-08-12T20:19:40.301Z,23.48
2018-08-12T20:22:14.813Z,23.47
2018-08-12T20:24:44.279Z,23.48
2018-08-12T20:27:13.359Z,23.40
2018-08-12T20:29:42.168Z,23.30
2018-08-12T20:32:10.910Z,23.35
2018-08-12T20:34:39.822Z,23.33
2018-08-12T20:37:08.625Z,23.29
2018-08-12T20:39:37.513Z,23.18
2018-08-12T20:42:06.142Z,23.03
2018-08-12T20:44:35.058Z,22.89
2018-08-12T20:47:03.843Z,22.78
2018-08-12T20:49:32.559Z,22.68
2018-08-12T20:52:01.365Z,22.77
2018-08-12T20:54:30.034Z,22.82
2018-08-12T20:56:58.818Z,22.70
2018-08-12T20:59:27.763Z,22.60
2018-08-12T21:01:56.423Z,22.54
2018-08-12T21:04:25.164Z,22.52
2018-08-12T21:06:54.038Z,22.43
2018-08-12T21:09:22.841Z,22.60
2018-08-12T21:11:51.801Z,22.59
2018-08-12T21:14:20.621Z,22.46
2018-08-12T21:16:49.770Z,22.38
2018-08-12T21:19:18.413Z,22.35
2018-08-12T21:21:47.077Z,22.35
2018-08-12T21:24:15.686Z,22.32
2018-08-12T21:26:50.823Z,22.20
2018-08-12T21:29:19.514Z,22.26
2018-08-12T21:31:48.149Z,22.22
2018-08-12T21:34:16.809Z,22.32
2018-08-12T21:36:45.455Z,22.30
2018-08-12T21:39:14.683Z,22.20
2018-08-12T21:41:43.444Z,22.12
2018-08-12T21:44:12.040Z,22.13
2018-08-12T21:46:40.632Z,22.13
2018-08-12T21:49:09.229Z,22.01
2018-08-12T21:51:37.840Z,21.99
2018-08-12T21:54:06.464Z,21.93
2018-08-12T21:56:35.098Z,21.88
2018-08-12T21:59:03.753Z,21.83
2018-08-12T22:01:32.457Z,21.74
2018-08-12T22:04:01.142Z,21.74
2018-08-12T22:06:29.810Z,21.77
2018-08-12T22:08:58.522Z,21.83
2018-08-12T22:11:28.284Z,21.73
2018-08-12T22:13:56.918Z,21.67
2018-08-12T22:16:32.201Z,21.62
2018-08-12T22:19:00.842Z,21.53
2018-08-12T22:21:29.501Z,21.62
2018-08-12T22:23:58.153Z,21.67
2018-08-12T22:26:26.818Z,21.61
2018-08-12T22:28:55.465Z,21.48
2018-08-12T22:31:24.105Z,21.41
2018-08-12T22:33:52.721Z,21.40
2018-08-12T22:36:21.439Z,21.42
2018-08-12T22:38:50.218Z,21.37
2018-08-12T22:41:18.893Z,21.35
2018-08-12T22:43:47.568Z,21.29
2018-08-12T22:46:19.063Z,21.33
2018-08-12T22:48:47.710Z,21.28
2018-08-12T22:51:16.322Z,21.17
2018-08-12T22:53:44.973Z,21.03
2018-08-12T22:56:13.664Z,20.94
2018-08-12T22:58:42.294Z,21.04
2018-08-12T23:01:11.105Z,20.94
2018-08-12T23:03:39.982Z,21.00
2018-08-12T23:06:08.734Z,20.95
2018-08-12T23:08:37.421Z,20.97
2018-08-12T23:11:06.018Z,20.89
2018-08-12T23:13:34.607Z,20.90
2018-08-12T23:16:15.673Z,20.93
2018-08-12T23:18:44.266Z,20.93
2018-08-12T23:21:13.764Z,20.97
2018-08-12T23:23:43.550Z,20.94
2018-08-12T23:26:14.098Z,20.85
2018-08-12T23:28:42.793Z,20.79
2018-08-12T23:31:11.459Z,20.78
2018-08-12T23:33:45.651Z,20.68
2018-08-12T23:36:14.411Z,20.67
2018-08-12T23:38:43.053Z,20.64
2018-08-12T23:41:12.176Z,20.55
2018-08-12T23:43:40.936Z,20.45
2018-08-12T23:46:10.382Z,20.46
2018-08-12T23:48:39.077Z,20.51
2018-08-12T23:51:08.066Z,20.40
2018-08-12T23:53:36.683Z,20.30
2018-08-12T23:56:05.518Z,20.18
2018-08-12T23:58:34.301Z,20.11
